Sign in

Goboko App

Advertising

Info

Aviation weather - KDAB

METAR KDAB 222153Z 13006G15KT 10SM FEW035 FEW250 31/24 A3003 RMK AO2 LTG DSNT W AND NW SLP169 TCU DSNT NW T03060239

TAF KDAB 222102Z 2221/2318 11011KT P6SM FEW035 FEW250 FM230000 13002KT P6SM FEW030 FEW250 FM230600 15002KT P6SM FEW015 FM231500 14008KT P6SM SCT030

Aviation weather from ADDS. Re-check weather before flight.

-